createdAt,value
2023-02-19T00:01:04.564Z,8.90
2023-02-19T00:03:32.042Z,8.80
2023-02-19T00:06:02.477Z,8.80
2023-02-19T00:08:31.835Z,8.80
2023-02-19T00:11:11.843Z,8.80
2023-02-19T00:13:39.753Z,8.80
2023-02-19T00:16:11.113Z,8.80
2023-02-19T00:18:39.093Z,8.80
2023-02-19T00:21:07.057Z,8.80
2023-02-19T00:23:34.333Z,8.80
2023-02-19T00:26:17.203Z,8.90
2023-02-19T00:28:46.901Z,8.90
2023-02-19T00:31:21.694Z,8.80
2023-02-19T00:33:49.750Z,8.80
2023-02-19T00:36:16.958Z,8.70
2023-02-19T00:38:44.269Z,8.70
2023-02-19T00:41:20.620Z,8.70
2023-02-19T00:43:49.204Z,8.60
2023-02-19T00:46:18.336Z,8.60
2023-02-19T00:48:45.694Z,8.60
2023-02-19T00:51:12.629Z,8.50
2023-02-19T00:53:39.458Z,8.50
2023-02-19T00:56:06.884Z,8.40
2023-02-19T00:58:33.929Z,8.40
2023-02-19T01:01:01.018Z,8.40
2023-02-19T01:03:27.802Z,8.40
2023-02-19T01:05:54.770Z,8.30
2023-02-19T01:08:21.993Z,8.20
2023-02-19T01:10:49.341Z,8.20
2023-02-19T01:13:16.518Z,8.20
2023-02-19T01:15:43.467Z,8.20
2023-02-19T01:18:10.919Z,8.10
2023-02-19T01:20:42.312Z,8.10
2023-02-19T01:23:10.282Z,8.10
2023-02-19T01:25:41.573Z,8.10
2023-02-19T01:28:08.719Z,8.10
2023-02-19T01:30:37.096Z,8.10
2023-02-19T01:33:08.117Z,8.10
2023-02-19T01:35:38.301Z,8.00
2023-02-19T01:38:05.172Z,8.00
2023-02-19T01:40:32.004Z,8.00
2023-02-19T01:42:58.829Z,8.10
2023-02-19T01:45:30.040Z,8.00
2023-02-19T01:48:09.105Z,8.00
2023-02-19T01:50:38.766Z,8.00
2023-02-19T01:53:07.481Z,8.00
2023-02-19T01:55:34.728Z,8.00
2023-02-19T01:58:01.797Z,8.40
2023-02-19T02:00:28.767Z,8.00
2023-02-19T02:02:56.741Z,8.00
2023-02-19T02:05:29.955Z,8.00
2023-02-19T02:08:15.372Z,8.00
2023-02-19T02:10:42.979Z,8.00
2023-02-19T02:13:09.796Z,8.00
2023-02-19T02:15:43.428Z,8.00
2023-02-19T02:18:16.444Z,8.00
2023-02-19T02:21:04.227Z,8.00
2023-02-19T02:23:40.187Z,8.00
2023-02-19T02:26:14.473Z,8.00
2023-02-19T02:28:41.345Z,8.00
2023-02-19T02:31:27.184Z,8.00
2023-02-19T02:33:55.875Z,8.00
2023-02-19T02:36:34.592Z,8.00
2023-02-19T02:39:03.486Z,8.00
2023-02-19T02:41:33.918Z,8.00
2023-02-19T02:44:01.284Z,8.00
2023-02-19T02:46:32.012Z,8.00
2023-02-19T02:49:02.004Z,8.00
2023-02-19T02:51:38.139Z,8.00
2023-02-19T02:54:38.969Z,8.00
2023-02-19T02:57:14.712Z,8.10
2023-02-19T03:00:08.508Z,8.10
2023-02-19T03:02:35.698Z,8.10
2023-02-19T03:05:27.083Z,8.10
2023-02-19T03:08:03.217Z,8.10
2023-02-19T03:10:39.249Z,8.10
2023-02-19T03:13:26.506Z,8.10
2023-02-19T03:16:02.643Z,8.10
2023-02-19T03:18:49.444Z,8.20
2023-02-19T03:21:19.198Z,8.30
2023-02-19T03:24:05.773Z,8.20
2023-02-19T03:26:33.595Z,8.20
2023-02-19T03:29:34.100Z,8.30
2023-02-19T03:32:15.137Z,8.30
2023-02-19T03:34:47.582Z,8.30
2023-02-19T03:37:17.358Z,8.30
2023-02-19T03:39:44.682Z,8.30
2023-02-19T03:42:34.022Z,8.30
2023-02-19T03:45:08.035Z,8.40
2023-02-19T03:47:43.718Z,8.40
2023-02-19T03:50:24.174Z,8.40
2023-02-19T03:52:57.127Z,8.40
2023-02-19T03:55:34.962Z,8.40
2023-02-19T03:58:04.873Z,8.40
2023-02-19T04:00:40.539Z,8.40
2023-02-19T04:03:11.685Z,8.40
2023-02-19T04:05:41.919Z,8.40
2023-02-19T04:08:14.061Z,8.50
2023-02-19T04:10:46.014Z,8.50
2023-02-19T04:13:19.980Z,8.50
2023-02-19T04:15:47.359Z,8.50
2023-02-19T04:18:16.557Z,8.40
2023-02-19T04:20:44.518Z,8.40
2023-02-19T04:23:12.302Z,8.30
2023-02-19T04:25:41.297Z,8.30
2023-02-19T04:28:09.180Z,8.20
2023-02-19T04:30:36.261Z,8.20
2023-02-19T04:33:03.061Z,8.20
2023-02-19T04:35:30.066Z,8.20
2023-02-19T04:37:56.935Z,8.20
2023-02-19T04:40:23.665Z,8.20
2023-02-19T04:42:51.078Z,8.20
2023-02-19T04:45:17.890Z,8.20
2023-02-19T04:47:44.747Z,8.20
2023-02-19T04:50:11.485Z,8.20
2023-02-19T04:52:39.521Z,8.20
2023-02-19T04:55:06.563Z,8.20
2023-02-19T04:57:33.470Z,8.20
2023-02-19T05:00:00.253Z,8.20
2023-02-19T05:02:27.078Z,8.20
2023-02-19T05:04:53.836Z,8.20
2023-02-19T05:07:20.681Z,8.20
2023-02-19T05:09:47.469Z,8.20
2023-02-19T05:12:14.283Z,8.30
2023-02-19T05:14:41.066Z,8.30
2023-02-19T05:17:07.873Z,8.30
2023-02-19T05:19:34.592Z,8.20
2023-02-19T05:22:01.386Z,8.20
2023-02-19T05:24:28.373Z,8.10
2023-02-19T05:26:55.216Z,8.10
2023-02-19T05:29:22.007Z,8.10
2023-02-19T05:31:49.511Z,8.10
2023-02-19T05:34:16.324Z,8.20
2023-02-19T05:36:44.253Z,8.20
2023-02-19T05:39:11.650Z,8.20
2023-02-19T05:41:39.008Z,8.10
2023-02-19T05:44:05.836Z,8.10
2023-02-19T05:46:32.790Z,8.20
2023-02-19T05:48:59.743Z,8.20
2023-02-19T05:51:27.348Z,8.20
2023-02-19T05:53:55.307Z,8.30
2023-02-19T05:56:31.846Z,8.20
2023-02-19T05:58:59.375Z,8.30
2023-02-19T06:01:27.701Z,8.30
2023-02-19T06:03:57.260Z,8.30
2023-02-19T06:06:24.742Z,8.20
2023-02-19T06:08:51.834Z,8.20
2023-02-19T06:11:18.743Z,8.20
2023-02-19T06:13:45.594Z,8.10
2023-02-19T06:16:12.404Z,8.10
2023-02-19T06:18:40.689Z,8.10
2023-02-19T06:21:09.120Z,8.10
2023-02-19T06:23:36.394Z,8.10
2023-02-19T06:26:10.543Z,8.10
2023-02-19T06:28:38.108Z,8.10
2023-02-19T06:31:05.563Z,8.00
2023-02-19T06:33:32.650Z,8.00
2023-02-19T06:36:00.765Z,8.10
2023-02-19T06:38:27.838Z,8.10
2023-02-19T06:40:54.659Z,8.10
2023-02-19T06:43:21.723Z,8.10
2023-02-19T06:45:48.508Z,8.10
2023-02-19T06:48:15.209Z,8.10
2023-02-19T06:50:42.064Z,8.10
2023-02-19T06:53:09.950Z,8.10
2023-02-19T06:55:36.700Z,8.10
2023-02-19T06:58:03.527Z,8.00
2023-02-19T07:00:30.332Z,8.00
2023-02-19T07:02:57.355Z,7.90
2023-02-19T07:05:24.151Z,8.00
2023-02-19T07:07:50.990Z,8.00
2023-02-19T07:10:17.833Z,8.10
2023-02-19T07:12:44.608Z,8.20
2023-02-19T07:15:11.382Z,8.20
2023-02-19T07:17:38.271Z,8.40
2023-02-19T07:20:05.171Z,8.30
2023-02-19T07:22:32.020Z,8.40
2023-02-19T07:24:58.754Z,8.40
2023-02-19T07:27:25.587Z,8.50
2023-02-19T07:29:52.393Z,8.60
2023-02-19T07:32:19.311Z,8.60
2023-02-19T07:34:46.737Z,8.60
2023-02-19T07:37:14.674Z,8.70
2023-02-19T07:39:42.418Z,8.70
2023-02-19T07:42:09.714Z,8.80
2023-02-19T07:44:37.885Z,8.70
2023-02-19T07:47:04.779Z,8.80
2023-02-19T07:49:32.919Z,8.80
2023-02-19T07:51:59.780Z,8.80
2023-02-19T07:54:26.571Z,8.90
2023-02-19T07:56:53.371Z,9.00
2023-02-19T07:59:21.598Z,8.90
2023-02-19T08:02:07.394Z,9.00
2023-02-19T08:04:34.352Z,9.00
2023-02-19T08:07:01.269Z,9.00
2023-02-19T08:09:28.076Z,9.00
2023-02-19T08:12:13.253Z,9.10
2023-02-19T08:14:40.126Z,9.30
2023-02-19T08:17:07.011Z,9.40
2023-02-19T08:19:33.819Z,9.40
2023-02-19T08:22:00.595Z,9.40
2023-02-19T08:24:27.385Z,9.50
2023-02-19T08:26:54.202Z,9.30
2023-02-19T08:29:20.997Z,9.50
2023-02-19T08:31:48.156Z,9.70
2023-02-19T08:34:14.985Z,10.00
2023-02-19T08:36:42.610Z,10.00
2023-02-19T08:39:09.515Z,10.20
2023-02-19T08:41:36.504Z,9.90
2023-02-19T08:44:03.498Z,9.90
2023-02-19T08:46:30.265Z,9.80
2023-02-19T08:48:57.019Z,9.80
2023-02-19T08:51:23.804Z,9.90
2023-02-19T08:53:50.574Z,10.00
2023-02-19T08:56:17.697Z,10.20
2023-02-19T08:58:44.708Z,10.10
2023-02-19T09:01:13.675Z,10.20
2023-02-19T09:03:40.941Z,10.20
2023-02-19T09:06:08.029Z,10.10
2023-02-19T09:08:35.005Z,10.20
2023-02-19T09:11:03.459Z,10.40
2023-02-19T09:13:30.685Z,10.70
2023-02-19T09:15:57.492Z,10.90
2023-02-19T09:18:24.985Z,10.80
2023-02-19T09:20:51.931Z,11.00
2023-02-19T09:23:18.733Z,11.00
2023-02-19T09:25:45.521Z,10.90
2023-02-19T09:28:12.281Z,11.00
2023-02-19T09:30:39.031Z,10.90
2023-02-19T09:33:05.782Z,11.00
2023-02-19T09:35:32.631Z,11.00
2023-02-19T09:38:00.354Z,10.90
2023-02-19T09:40:27.406Z,11.00
2023-02-19T09:42:54.162Z,10.90
2023-02-19T09:45:25.145Z,10.70
2023-02-19T09:47:58.334Z,10.80
2023-02-19T09:50:31.047Z,10.70
2023-02-19T09:52:59.130Z,10.70
2023-02-19T09:55:30.617Z,10.60
2023-02-19T09:57:59.630Z,10.50
2023-02-19T10:00:31.670Z,10.60
2023-02-19T10:03:12.664Z,10.60
2023-02-19T10:05:39.920Z,10.50
2023-02-19T10:08:13.376Z,10.40
2023-02-19T10:10:41.478Z,10.20
2023-02-19T10:13:15.150Z,10.00
2023-02-19T10:15:46.187Z,10.00
2023-02-19T10:18:13.662Z,10.00
2023-02-19T10:20:40.435Z,9.90
2023-02-19T10:23:08.332Z,10.00
2023-02-19T10:25:35.558Z,10.10
2023-02-19T10:28:02.509Z,10.40
2023-02-19T10:30:31.101Z,10.50
2023-02-19T10:33:00.917Z,10.60
2023-02-19T10:35:28.096Z,10.70
2023-02-19T10:37:55.026Z,10.80
2023-02-19T10:40:23.476Z,10.50
2023-02-19T10:42:52.454Z,10.50
2023-02-19T10:45:38.097Z,10.40
2023-02-19T10:48:06.001Z,10.50
2023-02-19T10:50:35.126Z,10.60
2023-02-19T10:53:02.173Z,10.50
2023-02-19T10:55:35.154Z,10.60
2023-02-19T10:58:24.605Z,10.50
2023-02-19T11:01:09.751Z,10.50
2023-02-19T11:03:36.958Z,10.50
2023-02-19T11:06:06.914Z,10.50
2023-02-19T11:08:40.323Z,10.50
2023-02-19T11:11:07.156Z,10.90
2023-02-19T11:13:37.888Z,11.20
2023-02-19T11:16:05.261Z,11.30
2023-02-19T11:18:32.720Z,11.20
2023-02-19T11:21:00.725Z,11.10
2023-02-19T11:23:31.828Z,11.10
2023-02-19T11:26:00.802Z,11.20
2023-02-19T11:28:27.558Z,11.40
2023-02-19T11:30:54.436Z,11.40
2023-02-19T11:33:24.311Z,11.40
2023-02-19T11:35:52.297Z,11.30
2023-02-19T11:38:20.161Z,11.20
2023-02-19T11:41:05.495Z,10.90
2023-02-19T11:43:32.310Z,10.90
2023-02-19T11:46:22.262Z,10.80
2023-02-19T11:49:07.964Z,11.00
2023-02-19T11:52:10.153Z,11.30
2023-02-19T11:54:42.700Z,12.20
2023-02-19T11:57:14.877Z,12.40
2023-02-19T11:59:48.016Z,12.80
2023-02-19T12:02:27.131Z,12.80
2023-02-19T12:05:00.031Z,12.70
2023-02-19T12:07:36.863Z,12.70
2023-02-19T12:10:06.681Z,12.20
2023-02-19T12:12:37.799Z,11.60
2023-02-19T12:15:25.462Z,11.60
2023-02-19T12:17:52.286Z,11.70
2023-02-19T12:20:29.170Z,11.80
2023-02-19T12:23:03.618Z,11.90
2023-02-19T12:25:40.166Z,12.00
2023-02-19T12:28:19.226Z,12.30
2023-02-19T12:30:52.001Z,12.50
2023-02-19T12:33:37.344Z,12.60
2023-02-19T12:36:10.413Z,12.60
2023-02-19T12:38:44.373Z,12.40
2023-02-19T12:41:16.911Z,12.40
2023-02-19T12:43:47.730Z,13.00
2023-02-19T12:46:21.581Z,13.60
2023-02-19T12:48:54.134Z,12.70
2023-02-19T12:51:28.940Z,12.10
2023-02-19T12:54:01.538Z,11.80
2023-02-19T12:56:30.914Z,11.80
2023-02-19T12:59:03.982Z,11.90
2023-02-19T13:01:33.767Z,11.80
2023-02-19T13:04:14.331Z,11.50
2023-02-19T13:06:41.131Z,11.60
2023-02-19T13:09:11.581Z,11.90
2023-02-19T13:11:48.256Z,12.10
2023-02-19T13:14:21.088Z,12.20
2023-02-19T13:16:50.656Z,12.50
2023-02-19T13:19:17.542Z,12.70
2023-02-19T13:22:05.841Z,12.60
2023-02-19T13:24:35.537Z,12.30
2023-02-19T13:27:21.105Z,11.90
2023-02-19T13:29:53.954Z,11.70
2023-02-19T13:32:20.838Z,11.50
2023-02-19T13:34:54.697Z,11.50
2023-02-19T13:37:22.318Z,11.50
2023-02-19T13:39:50.375Z,11.20
2023-02-19T13:42:27.862Z,11.00
2023-02-19T13:44:57.914Z,10.90
2023-02-19T13:47:44.540Z,10.70
2023-02-19T13:50:17.671Z,10.90
2023-02-19T13:52:44.641Z,11.60
2023-02-19T13:55:31.637Z,11.90
2023-02-19T13:58:16.962Z,12.10
2023-02-19T14:00:49.475Z,12.20
2023-02-19T14:03:29.592Z,12.00
2023-02-19T14:06:01.574Z,12.00
2023-02-19T14:08:48.473Z,12.20
2023-02-19T14:11:16.152Z,12.10
2023-02-19T14:13:52.391Z,12.20
2023-02-19T14:16:28.211Z,12.40
2023-02-19T14:18:56.342Z,12.50
2023-02-19T14:21:27.931Z,12.80
2023-02-19T14:23:57.524Z,13.10
2023-02-19T14:26:25.740Z,13.20
2023-02-19T14:28:53.183Z,13.00
2023-02-19T14:31:22.827Z,13.00
2023-02-19T14:33:51.967Z,12.60
2023-02-19T14:36:21.418Z,12.50
2023-02-19T14:38:50.542Z,12.50
2023-02-19T14:41:17.807Z,12.20
2023-02-19T14:43:45.474Z,12.00
2023-02-19T14:46:32.404Z,11.70
2023-02-19T14:49:15.170Z,11.60
2023-02-19T14:51:44.262Z,11.40
2023-02-19T14:54:16.421Z,11.20
2023-02-19T14:56:46.214Z,11.10
2023-02-19T14:59:24.964Z,11.00
2023-02-19T15:01:55.715Z,11.00
2023-02-19T15:04:27.557Z,10.90
2023-02-19T15:06:56.693Z,10.80
2023-02-19T15:09:29.503Z,10.80
2023-02-19T15:11:57.889Z,10.70
2023-02-19T15:14:28.609Z,10.60
2023-02-19T15:16:58.007Z,10.60
2023-02-19T15:19:24.963Z,10.60
2023-02-19T15:21:51.976Z,10.60
2023-02-19T15:24:19.241Z,10.70
2023-02-19T15:26:54.162Z,10.60
2023-02-19T15:29:23.143Z,10.70
2023-02-19T15:31:51.920Z,10.70
2023-02-19T15:34:26.329Z,10.70
2023-02-19T15:36:56.834Z,10.70
2023-02-19T15:39:25.018Z,10.80
2023-02-19T15:42:02.404Z,10.90
2023-02-19T15:44:52.516Z,10.90
2023-02-19T15:47:38.114Z,10.90
2023-02-19T15:50:05.028Z,10.90
2023-02-19T15:52:41.588Z,10.80
2023-02-19T15:55:09.633Z,10.70
2023-02-19T15:57:41.120Z,10.70
2023-02-19T16:00:21.703Z,10.70
2023-02-19T16:02:49.717Z,10.70
2023-02-19T16:05:24.373Z,10.70
2023-02-19T16:08:09.710Z,10.70
2023-02-19T16:10:36.757Z,10.70
2023-02-19T16:13:04.653Z,10.60
2023-02-19T16:15:32.538Z,10.60
2023-02-19T16:17:59.474Z,10.60
2023-02-19T16:20:27.557Z,10.50
2023-02-19T16:22:59.414Z,10.50
2023-02-19T16:25:28.481Z,10.50
2023-02-19T16:27:55.705Z,10.50
2023-02-19T16:30:30.596Z,10.50
2023-02-19T16:33:16.300Z,10.50
2023-02-19T16:35:45.039Z,10.50
2023-02-19T16:38:15.811Z,10.30
2023-02-19T16:40:49.260Z,10.30
2023-02-19T16:43:17.033Z,10.20
2023-02-19T16:45:44.878Z,10.30
2023-02-19T16:48:12.366Z,10.20
2023-02-19T16:50:41.403Z,10.20
2023-02-19T16:53:08.210Z,10.20
2023-02-19T16:55:35.070Z,10.10
2023-02-19T16:58:01.815Z,10.10
2023-02-19T17:00:29.661Z,10.10
2023-02-19T17:03:02.368Z,10.10
2023-02-19T17:05:30.789Z,10.00
2023-02-19T17:07:57.746Z,9.90
2023-02-19T17:10:25.921Z,9.90
2023-02-19T17:12:53.241Z,10.00
2023-02-19T17:15:20.338Z,9.80
2023-02-19T17:17:47.151Z,9.80
2023-02-19T17:20:16.785Z,9.50
2023-02-19T17:22:44.001Z,9.20
2023-02-19T17:25:10.799Z,9.00
2023-02-19T17:27:37.558Z,8.90
2023-02-19T17:30:10.318Z,8.80
2023-02-19T17:32:37.253Z,8.70
2023-02-19T17:35:04.135Z,8.80
2023-02-19T17:37:30.942Z,8.80
2023-02-19T17:39:57.666Z,8.70
2023-02-19T17:42:25.817Z,8.70
2023-02-19T17:44:55.175Z,8.60
2023-02-19T17:47:24.696Z,8.50
2023-02-19T17:49:52.534Z,8.40
2023-02-19T17:52:19.587Z,8.50
2023-02-19T17:54:46.601Z,8.40
2023-02-19T17:57:13.534Z,8.40
2023-02-19T17:59:40.727Z,8.30
2023-02-19T18:02:07.604Z,8.40
2023-02-19T18:04:36.469Z,8.30
2023-02-19T18:07:03.657Z,8.40
2023-02-19T18:09:30.518Z,8.30
2023-02-19T18:11:57.337Z,8.40
2023-02-19T18:14:24.122Z,8.40
2023-02-19T18:16:51.066Z,8.40
2023-02-19T18:19:17.938Z,8.60
2023-02-19T18:21:44.695Z,8.50
2023-02-19T18:24:11.559Z,8.50
2023-02-19T18:26:38.371Z,8.50
2023-02-19T18:29:05.717Z,8.60
2023-02-19T18:31:33.214Z,8.50
2023-02-19T18:34:00.080Z,8.60
2023-02-19T18:36:26.934Z,8.60
2023-02-19T18:38:53.779Z,8.60
2023-02-19T18:41:21.241Z,8.60
2023-02-19T18:43:48.816Z,8.60
2023-02-19T18:46:15.670Z,8.70
2023-02-19T18:48:42.551Z,8.60
2023-02-19T18:51:09.972Z,8.60
2023-02-19T18:53:37.157Z,8.60
2023-02-19T18:56:05.475Z,8.60
2023-02-19T18:58:32.292Z,8.60
2023-02-19T19:00:59.548Z,8.60
2023-02-19T19:03:26.402Z,8.60
2023-02-19T19:05:53.333Z,8.60
2023-02-19T19:08:20.141Z,8.60
2023-02-19T19:10:47.085Z,8.60
2023-02-19T19:13:13.923Z,8.60
2023-02-19T19:15:41.432Z,8.60
2023-02-19T19:18:08.730Z,8.60
2023-02-19T19:20:35.559Z,8.60
2023-02-19T19:23:02.397Z,8.70
2023-02-19T19:25:29.206Z,8.60
2023-02-19T19:27:56.627Z,8.60
2023-02-19T19:30:23.409Z,8.60
2023-02-19T19:32:51.873Z,8.60
2023-02-19T19:35:19.819Z,8.60
2023-02-19T19:37:46.863Z,8.70
2023-02-19T19:40:13.787Z,8.60
2023-02-19T19:42:41.302Z,8.60
2023-02-19T19:45:10.987Z,8.70
2023-02-19T19:47:37.749Z,8.70
2023-02-19T19:50:04.806Z,8.80
2023-02-19T19:52:31.614Z,8.70
2023-02-19T19:54:58.500Z,8.70
2023-02-19T19:57:25.329Z,8.70
2023-02-19T19:59:52.242Z,8.70
2023-02-19T20:02:19.079Z,8.60
2023-02-19T20:04:46.423Z,8.70
2023-02-19T20:07:13.265Z,8.70
2023-02-19T20:09:40.117Z,8.70
2023-02-19T20:12:07.151Z,8.70
2023-02-19T20:14:33.994Z,8.80
2023-02-19T20:17:00.732Z,8.80
2023-02-19T20:19:27.496Z,8.70
2023-02-19T20:21:54.463Z,8.80
2023-02-19T20:24:25.888Z,8.80
2023-02-19T20:26:59.671Z,8.80
2023-02-19T20:29:29.020Z,8.80
2023-02-19T20:31:57.368Z,8.70
2023-02-19T20:34:24.357Z,8.60
2023-02-19T20:36:51.168Z,8.50
2023-02-19T20:39:19.258Z,8.50
2023-02-19T20:41:46.382Z,8.40
2023-02-19T20:44:13.590Z,8.30
2023-02-19T20:46:41.555Z,8.30
2023-02-19T20:49:08.478Z,8.30
2023-02-19T20:51:45.712Z,8.40
2023-02-19T20:54:12.924Z,8.30
2023-02-19T20:56:46.896Z,8.20
2023-02-19T20:59:14.866Z,8.30
2023-02-19T21:01:42.222Z,8.30
2023-02-19T21:04:09.241Z,8.30
2023-02-19T21:06:36.013Z,8.30
2023-02-19T21:09:03.184Z,8.30
2023-02-19T21:11:30.369Z,8.30
2023-02-19T21:13:59.133Z,8.30
2023-02-19T21:16:27.085Z,8.20
2023-02-19T21:18:54.119Z,8.20
2023-02-19T21:21:25.138Z,8.20
2023-02-19T21:23:55.827Z,8.20
2023-02-19T21:26:22.911Z,8.20
2023-02-19T21:28:52.703Z,8.20
2023-02-19T21:31:20.116Z,8.20
2023-02-19T21:33:47.254Z,8.20
2023-02-19T21:36:14.808Z,8.30
2023-02-19T21:38:41.643Z,8.30
2023-02-19T21:41:08.619Z,8.20
2023-02-19T21:43:35.425Z,8.30
2023-02-19T21:46:02.180Z,8.30
2023-02-19T21:48:29.099Z,8.30
2023-02-19T21:50:56.049Z,8.40
2023-02-19T21:53:22.830Z,8.30
2023-02-19T21:55:58.321Z,8.30
2023-02-19T21:58:26.241Z,8.30
2023-02-19T22:00:54.068Z,8.20
2023-02-19T22:03:21.262Z,8.30
2023-02-19T22:05:48.071Z,8.30
2023-02-19T22:08:15.922Z,8.20
2023-02-19T22:10:42.927Z,8.30
2023-02-19T22:13:10.066Z,8.30
2023-02-19T22:15:37.365Z,8.20
2023-02-19T22:18:04.290Z,8.30
2023-02-19T22:20:31.110Z,8.30
2023-02-19T22:22:58.034Z,8.30
2023-02-19T22:25:25.009Z,8.40
2023-02-19T22:27:51.768Z,8.30
2023-02-19T22:30:18.808Z,8.30
2023-02-19T22:32:45.713Z,8.20
2023-02-19T22:35:15.406Z,8.30
2023-02-19T22:37:42.470Z,8.20
2023-02-19T22:40:09.409Z,8.20
2023-02-19T22:42:36.263Z,8.30
2023-02-19T22:45:03.126Z,8.30
2023-02-19T22:47:30.174Z,8.20
2023-02-19T22:49:57.067Z,8.30
2023-02-19T22:52:27.975Z,8.30
2023-02-19T22:54:55.308Z,8.30
2023-02-19T22:57:22.211Z,8.30
2023-02-19T22:59:49.203Z,8.40
2023-02-19T23:02:16.092Z,8.40
2023-02-19T23:04:42.966Z,8.50
2023-02-19T23:07:10.063Z,8.40
2023-02-19T23:09:37.127Z,8.40
2023-02-19T23:12:06.723Z,8.40
2023-02-19T23:14:35.341Z,8.30
2023-02-19T23:17:03.809Z,8.40
2023-02-19T23:19:32.288Z,8.40
2023-02-19T23:22:00.665Z,8.40
2023-02-19T23:24:27.856Z,8.40
2023-02-19T23:26:55.235Z,8.40
2023-02-19T23:29:25.307Z,8.40
2023-02-19T23:31:53.843Z,8.40
2023-02-19T23:34:22.009Z,8.20
2023-02-19T23:36:50.579Z,8.10
2023-02-19T23:39:19.937Z,8.00
2023-02-19T23:41:47.982Z,7.90
2023-02-19T23:44:15.874Z,7.80
2023-02-19T23:46:43.110Z,7.60
2023-02-19T23:49:10.529Z,7.70
2023-02-19T23:51:37.396Z,7.70
2023-02-19T23:54:04.445Z,7.70
2023-02-19T23:56:31.345Z,7.80
2023-02-19T23:58:58.377Z,7.80
